Time;durP1;ratioP1;P1;durP2;ratioP2;P2;SDS_P1;SDS_P2;PMS_P1;PMS_P2;Temp;Humidity;BMP_temperature;BMP_pressure;BME280_temperature;BME280_humidity;BME280_pressure;Samples;Min_cycle;Max_cycle;Signal;HPM_P1;HPM_P2
2023/12/15 00:00:11;;;;;;;7.28;5.53;;;21.40;46.00;;;;;;3111765;28;20405;-41
2023/12/15 00:01:43;;;;;;;6.50;5.57;;;21.50;45.70;;;;;;3111525;28;20042;-41
2023/12/15 00:03:15;;;;;;;6.55;5.35;;;21.50;45.80;;;;;;3111718;28;20420;-42
2023/12/15 00:04:47;;;;;;;7.22;5.75;;;21.40;45.90;;;;;;3108963;28;20054;-42
2023/12/15 00:06:18;;;;;;;7.05;5.88;;;21.30;45.90;;;;;;3110702;28;20053;-42
2023/12/15 00:07:49;;;;;;;5.78;5.18;;;21.30;46.00;;;;;;3111638;28;20042;-43
2023/12/15 00:09:23;;;;;;;6.90;5.50;;;21.30;46.10;;;;;;3110788;28;20046;-42
2023/12/15 00:10:54;;;;;;;7.90;5.55;;;21.30;46.10;;;;;;3110200;28;20507;-42
2023/12/15 00:12:25;;;;;;;7.28;5.55;;;21.30;46.10;;;;;;3111672;28;20049;-42
2023/12/15 00:13:56;;;;;;;6.90;5.70;;;21.20;46.20;;;;;;3111477;28;20053;-42
2023/12/15 00:15:28;;;;;;;5.93;5.10;;;21.30;46.20;;;;;;3111449;28;20056;-42
2023/12/15 00:16:58;;;;;;;6.43;5.15;;;21.30;46.00;;;;;;3111522;28;20412;-44
2023/12/15 00:18:31;;;;;;;6.53;4.97;;;21.30;46.10;;;;;;3111729;28;20050;-41
2023/12/15 00:20:03;;;;;;;5.82;5.18;;;21.20;46.10;;;;;;3111197;28;20493;-43
2023/12/15 00:21:35;;;;;;;7.07;5.78;;;21.30;46.10;;;;;;3111594;28;20045;-42
2023/12/15 00:23:05;;;;;;;6.55;5.57;;;21.20;46.00;;;;;;3111659;28;20057;-44
2023/12/15 00:24:37;;;;;;;6.25;4.85;;;21.30;45.90;;;;;;3110611;28;20042;-43
2023/12/15 00:26:08;;;;;;;6.97;5.45;;;21.30;45.90;;;;;;3111536;28;20053;-44
2023/12/15 00:27:39;;;;;;;6.43;5.00;;;21.30;45.90;;;;;;3111534;28;20042;-42
2023/12/15 00:29:10;;;;;;;6.43;5.30;;;21.30;46.00;;;;;;3111271;28;20050;-42
2023/12/15 00:30:42;;;;;;;5.85;5.25;;;21.20;46.10;;;;;;3111622;28;20420;-42
2023/12/15 00:32:12;;;;;;;6.47;4.90;;;21.20;46.10;;;;;;3110557;28;20100;-42
2023/12/15 00:33:45;;;;;;;7.47;5.47;;;21.20;46.10;;;;;;3111580;28;20506;-43
2023/12/15 00:35:16;;;;;;;6.10;5.03;;;21.20;46.10;;;;;;3109063;28;20054;-48
2023/12/15 00:36:48;;;;;;;6.95;5.55;;;21.20;45.90;;;;;;3111229;28;20100;-43
2023/12/15 00:38:19;;;;;;;5.88;5.00;;;21.30;45.80;;;;;;3111139;28;20049;-42
2023/12/15 00:39:50;;;;;;;6.03;4.95;;;21.20;45.90;;;;;;3111638;28;20056;-42
2023/12/15 00:41:21;;;;;;;6.30;4.93;;;21.20;46.00;;;;;;3111046;28;20042;-41
2023/12/15 00:42:52;;;;;;;6.47;5.20;;;21.20;46.00;;;;;;3111304;28;20050;-42
2023/12/15 00:44:23;;;;;;;5.90;4.72;;;21.20;46.00;;;;;;3110189;28;20065;-46
2023/12/15 00:45:55;;;;;;;6.45;5.03;;;21.10;46.00;;;;;;3111314;28;20741;-42
2023/12/15 00:47:25;;;;;;;6.15;4.75;;;21.10;46.00;;;;;;3110953;28;20049;-41
2023/12/15 00:48:58;;;;;;;6.35;5.15;;;21.10;46.10;;;;;;3111391;28;20481;-42
2023/12/15 00:50:29;;;;;;;8.10;4.82;;;21.10;45.90;;;;;;3109851;28;20057;-42
2023/12/15 00:52:01;;;;;;;6.85;5.15;;;21.10;46.00;;;;;;3110723;28;20512;-41
2023/12/15 00:53:32;;;;;;;5.60;4.63;;;21.00;46.20;;;;;;3111005;28;20042;-42
2023/12/15 00:55:04;;;;;;;5.88;4.78;;;21.00;46.20;;;;;;3111281;28;20440;-45
2023/12/15 00:56:35;;;;;;;5.22;4.53;;;21.10;46.10;;;;;;3108274;28;20042;-42
2023/12/15 00:58:07;;;;;;;5.75;4.88;;;21.10;46.00;;;;;;3110848;28;20503;-42
2023/12/15 00:59:38;;;;;;;5.88;5.07;;;21.10;46.10;;;;;;3110913;28;20077;-42
2023/12/15 01:01:09;;;;;;;5.72;4.80;;;21.10;46.20;;;;;;3111164;28;20050;-42
2023/12/15 01:02:40;;;;;;;5.45;4.55;;;21.00;46.20;;;;;;3110936;28;20053;-41
2023/12/15 01:04:13;;;;;;;7.55;4.40;;;21.10;46.10;;;;;;3111009;28;20050;-42
2023/12/15 01:05:43;;;;;;;7.32;4.75;;;21.00;46.10;;;;;;3108061;28;20051;-42
2023/12/15 01:07:15;;;;;;;5.50;4.32;;;21.00;46.20;;;;;;3110802;28;20050;-42
2023/12/15 01:08:46;;;;;;;5.97;4.60;;;21.00;46.30;;;;;;3111017;28;20050;-45
2023/12/15 01:10:17;;;;;;;5.00;4.35;;;21.00;46.40;;;;;;3110884;28;20046;-42
2023/12/15 01:11:48;;;;;;;5.05;4.28;;;20.90;46.40;;;;;;3110987;28;20467;-42
2023/12/15 01:13:20;;;;;;;5.75;4.72;;;20.90;46.50;;;;;;3111039;28;20046;-42
2023/12/15 01:14:50;;;;;;;6.60;4.57;;;20.90;46.40;;;;;;3109447;28;20054;-41
2023/12/15 01:16:22;;;;;;;5.90;4.93;;;20.90;46.50;;;;;;3110851;28;20045;-42
2023/12/15 01:17:53;;;;;;;5.47;4.57;;;20.90;46.50;;;;;;3108514;28;20046;-42
2023/12/15 01:19:26;;;;;;;5.68;4.70;;;20.90;46.20;;;;;;3110550;28;20531;-43
2023/12/15 01:20:57;;;;;;;5.85;4.43;;;20.90;46.30;;;;;;3110123;28;20054;-42
2023/12/15 01:22:28;;;;;;;5.88;4.45;;;20.90;46.30;;;;;;3110822;28;20573;-41
2023/12/15 01:23:59;;;;;;;4.80;4.30;;;20.90;46.40;;;;;;3110612;28;20061;-42
2023/12/15 01:25:30;;;;;;;6.10;4.40;;;20.90;46.30;;;;;;3110674;28;20105;-42
2023/12/15 01:27:01;;;;;;;5.13;4.30;;;21.00;46.30;;;;;;3110046;28;20050;-41
2023/12/15 01:28:33;;;;;;;4.85;4.35;;;20.90;46.20;;;;;;3110761;28;20042;-41
2023/12/15 01:30:05;;;;;;;6.13;4.03;;;21.00;46.10;;;;;;3110803;28;20053;-42
2023/12/15 01:31:36;;;;;;;5.37;4.33;;;20.90;46.30;;;;;;3110760;28;20121;-42
2023/12/15 01:33:07;;;;;;;5.25;4.30;;;21.00;46.20;;;;;;3110742;28;20894;-42
2023/12/15 01:34:40;;;;;;;4.70;4.07;;;20.90;46.20;;;;;;3109625;28;20122;-42
2023/12/15 01:36:11;;;;;;;6.00;4.43;;;20.90;46.20;;;;;;3106029;28;20053;-43
2023/12/15 01:37:42;;;;;;;4.68;4.13;;;20.80;46.40;;;;;;3110481;28;20053;-42
2023/12/15 01:39:13;;;;;;;6.03;4.13;;;20.90;46.40;;;;;;3110564;28;20053;-42
2023/12/15 01:40:45;;;;;;;4.85;4.20;;;20.90;46.30;;;;;;3110769;28;20055;-42
2023/12/15 01:42:18;;;;;;;4.90;4.07;;;20.90;46.20;;;;;;3105420;28;20057;-42
2023/12/15 01:43:49;;;;;;;5.30;4.28;;;20.90;46.20;;;;;;3108582;28;20053;-45
2023/12/15 01:45:21;;;;;;;5.03;4.10;;;20.90;46.10;;;;;;3110458;28;20041;-42
2023/12/15 01:46:51;;;;;;;5.13;4.32;;;20.90;46.10;;;;;;3110757;28;20056;-42
2023/12/15 01:48:23;;;;;;;5.22;4.25;;;20.90;46.20;;;;;;3110559;28;20038;-42
2023/12/15 01:49:55;;;;;;;5.18;4.40;;;20.90;46.10;;;;;;3110413;28;20053;-42
2023/12/15 01:51:27;;;;;;;5.13;4.40;;;20.90;46.10;;;;;;3109599;28;20091;-42
2023/12/15 01:52:57;;;;;;;4.97;4.22;;;20.90;46.10;;;;;;3110724;28;20534;-45
2023/12/15 01:54:29;;;;;;;6.03;4.20;;;20.90;46.10;;;;;;3110293;28;20042;-41
2023/12/15 01:56:00;;;;;;;4.90;4.00;;;20.80;46.20;;;;;;3110425;28;20057;-43
2023/12/15 01:57:31;;;;;;;4.40;4.00;;;20.90;46.10;;;;;;3110284;28;20046;-42
2023/12/15 01:59:02;;;;;;;6.20;4.35;;;21.00;45.90;;;;;;3110565;28;20069;-42
2023/12/15 02:00:33;;;;;;;5.13;4.40;;;21.00;45.80;;;;;;3110528;28;20049;-42
2023/12/15 02:02:04;;;;;;;5.55;4.13;;;21.00;45.80;;;;;;3110485;28;20054;-41
2023/12/15 02:03:36;;;;;;;4.97;4.05;;;21.00;45.90;;;;;;3110314;28;20037;-42
2023/12/15 02:05:08;;;;;;;4.53;3.85;;;21.00;45.90;;;;;;3110211;28;20094;-41
2023/12/15 02:06:39;;;;;;;4.32;3.83;;;20.90;46.10;;;;;;3110218;28;20045;-42
2023/12/15 02:08:10;;;;;;;4.80;4.07;;;20.90;46.00;;;;;;3110004;28;20045;-42
2023/12/15 02:09:42;;;;;;;4.68;3.80;;;20.90;46.10;;;;;;3108208;28;20045;-42
2023/12/15 02:11:13;;;;;;;4.85;3.67;;;20.90;46.00;;;;;;3109633;28;20045;-42
2023/12/15 02:12:44;;;;;;;4.22;3.58;;;20.90;46.20;;;;;;3110395;28;20045;-44
2023/12/15 02:14:15;;;;;;;4.07;3.67;;;20.80;46.20;;;;;;3108952;28;20054;-42
2023/12/15 02:15:46;;;;;;;4.88;3.72;;;20.80;46.40;;;;;;3110434;28;20044;-42
2023/12/15 02:17:17;;;;;;;4.85;4.20;;;20.90;46.10;;;;;;3107427;28;20045;-42
2023/12/15 02:18:49;;;;;;;4.78;4.07;;;20.90;46.00;;;;;;3109056;28;20516;-41
2023/12/15 02:20:24;;;;;;;4.45;3.90;;;20.90;45.90;;;;;;3108234;28;20480;-43
2023/12/15 02:21:56;;;;;;;4.50;3.90;;;20.90;45.90;;;;;;3110218;28;20835;-44
2023/12/15 02:23:27;;;;;;;5.30;3.88;;;20.80;46.00;;;;;;3110187;28;20057;-41
2023/12/15 02:24:59;;;;;;;5.72;4.20;;;20.70;46.10;;;;;;3106815;28;20420;-42
2023/12/15 02:26:30;;;;;;;4.63;3.58;;;20.80;46.00;;;;;;3110272;28;20061;-41
2023/12/15 02:28:01;;;;;;;4.22;3.78;;;20.80;46.00;;;;;;3108136;28;20061;-41
2023/12/15 02:29:33;;;;;;;4.80;3.53;;;20.80;46.00;;;;;;3110093;28;20493;-42
2023/12/15 02:31:05;;;;;;;4.20;3.63;;;20.90;45.90;;;;;;3110363;28;20046;-41
2023/12/15 02:32:36;;;;;;;4.80;3.72;;;20.90;46.00;;;;;;3110233;28;20046;-41
2023/12/15 02:34:07;;;;;;;4.65;3.85;;;20.80;46.00;;;;;;3109738;28;20056;-42
2023/12/15 02:35:40;;;;;;;4.53;3.80;;;20.80;46.00;;;;;;3108263;28;20046;-42
2023/12/15 02:37:12;;;;;;;;;;;20.80;46.10;;;;;;3110479;28;20049;-41
2023/12/15 02:38:44;;;;;;;4.35;3.75;;;20.80;45.90;;;;;;3109338;28;20372;-42
2023/12/15 02:40:15;;;;;;;4.07;3.67;;;20.70;46.20;;;;;;3108951;28;20056;-46
2023/12/15 02:41:46;;;;;;;3.83;3.45;;;20.70;46.20;;;;;;3109644;28;20065;-49
2023/12/15 02:43:18;;;;;;;4.43;3.50;;;20.70;46.20;;;;;;3109362;28;20050;-41
2023/12/15 02:44:48;;;;;;;4.32;3.60;;;20.60;46.40;;;;;;3108492;28;20459;-41
2023/12/15 02:46:20;;;;;;;5.15;3.70;;;20.70;46.10;;;;;;3109787;28;20134;-43
2023/12/15 02:47:50;;;;;;;4.15;3.50;;;20.70;46.10;;;;;;3109912;28;20050;-42
2023/12/15 02:49:22;;;;;;;4.45;3.83;;;20.60;46.10;;;;;;3108823;28;20053;-45
2023/12/15 02:50:54;;;;;;;4.65;3.42;;;20.70;46.20;;;;;;3108214;28;20050;-41
2023/12/15 02:52:24;;;;;;;4.05;3.55;;;20.70;45.90;;;;;;3109850;28;20412;-42
2023/12/15 02:53:59;;;;;;;4.05;3.33;;;20.80;45.70;;;;;;3109962;28;20049;-41
2023/12/15 02:55:29;;;;;;;4.65;3.83;;;20.90;45.60;;;;;;3109472;28;20085;-42
2023/12/15 02:57:01;;;;;;;3.95;3.55;;;20.80;45.70;;;;;;3108640;28;20425;-43
2023/12/15 02:58:32;;;;;;;4.25;3.65;;;20.80;45.70;;;;;;3107912;28;20046;-41
2023/12/15 03:00:04;;;;;;;4.10;3.70;;;20.90;45.70;;;;;;3110213;28;20081;-42
2023/12/15 03:01:34;;;;;;;3.97;3.53;;;20.80;45.70;;;;;;3109504;28;20576;-43
2023/12/15 03:03:06;;;;;;;4.22;3.33;;;20.80;45.70;;;;;;3109384;28;20042;-42
2023/12/15 03:04:37;;;;;;;3.53;3.20;;;20.80;45.80;;;;;;3108997;28;20057;-41
2023/12/15 03:06:08;;;;;;;3.78;3.25;;;20.80;45.90;;;;;;3109786;28;20519;-42
2023/12/15 03:07:39;;;;;;;3.28;2.95;;;20.70;46.00;;;;;;3109725;28;20499;-42
2023/12/15 03:09:12;;;;;;;3.70;3.25;;;20.70;46.00;;;;;;3109940;28;20050;-42
2023/12/15 03:10:42;;;;;;;3.55;3.20;;;20.70;46.00;;;;;;3109647;28;20049;-44
2023/12/15 03:12:14;;;;;;;3.67;3.25;;;20.70;46.10;;;;;;3109638;28;20057;-42
2023/12/15 03:13:45;;;;;;;3.88;3.38;;;20.60;46.10;;;;;;3109783;28;20053;-42
2023/12/15 03:15:16;;;;;;;3.80;3.30;;;20.50;46.50;;;;;;3109785;28;20046;-42
2023/12/15 03:16:47;;;;;;;3.75;3.35;;;20.40;46.60;;;;;;3109867;28;20078;-42
2023/12/15 03:18:19;;;;;;;3.40;3.10;;;20.40;46.70;;;;;;3109688;28;20053;-43
2023/12/15 03:19:50;;;;;;;3.75;3.40;;;20.40;46.70;;;;;;3108491;28;20049;-42
2023/12/15 03:21:22;;;;;;;4.38;3.40;;;20.50;46.40;;;;;;3109801;28;20045;-44
2023/12/15 03:22:53;;;;;;;3.35;3.05;;;20.50;46.30;;;;;;3109776;28;20054;-42
2023/12/15 03:24:26;;;;;;;3.72;2.80;;;20.60;46.10;;;;;;3109658;28;20404;-41
2023/12/15 03:25:57;;;;;;;3.50;3.10;;;20.60;46.80;;;;;;3108603;28;20053;-41
2023/12/15 03:27:28;;;;;;;3.83;3.15;;;20.50;46.20;;;;;;3109702;28;20042;-42
2023/12/15 03:28:59;;;;;;;4.05;3.25;;;20.60;46.10;;;;;;3109605;28;20050;-43
2023/12/15 03:30:31;;;;;;;3.88;3.38;;;20.60;46.10;;;;;;3109756;28;20045;-42
2023/12/15 03:32:01;;;;;;;3.20;2.90;;;20.60;46.00;;;;;;3109718;28;20053;-42
2023/12/15 03:33:34;;;;;;;3.63;3.13;;;20.50;46.10;;;;;;3108387;28;20064;-41
2023/12/15 03:35:05;;;;;;;4.07;3.30;;;20.60;46.10;;;;;;3109547;28;20050;-42
2023/12/15 03:36:38;;;;;;;3.88;3.13;;;20.60;45.90;;;;;;3109724;28;20513;-43
2023/12/15 03:38:09;;;;;;;3.67;3.20;;;20.60;45.80;;;;;;3105645;28;20639;-41
2023/12/15 03:39:42;;;;;;;4.93;3.42;;;20.70;45.70;;;;;;3107953;28;20058;-43
2023/12/15 03:41:13;;;;;;;3.35;3.03;;;20.60;45.80;;;;;;3109655;28;20060;-42
2023/12/15 03:42:46;;;;;;;4.15;3.15;;;20.60;46.00;;;;;;3109603;28;20045;-42
2023/12/15 03:44:16;;;;;;;3.67;3.38;;;20.60;46.00;;;;;;3109756;28;20050;-42
2023/12/15 03:45:48;;;;;;;3.42;3.10;;;20.60;46.00;;;;;;3108826;28;20060;-42
2023/12/15 03:47:19;;;;;;;3.60;3.30;;;20.50;46.00;;;;;;3109075;28;20053;-42
2023/12/15 03:48:50;;;;;;;4.20;3.20;;;20.60;46.00;;;;;;3108011;28;20046;-42
2023/12/15 03:50:21;;;;;;;3.40;3.05;;;20.50;46.10;;;;;;3109721;28;20053;-41
2023/12/15 03:51:53;;;;;;;4.22;3.15;;;20.50;46.20;;;;;;3108078;28;20073;-41
2023/12/15 03:53:23;;;;;;;3.92;3.00;;;20.50;46.30;;;;;;3109423;28;20061;-42
2023/12/15 03:54:56;;;;;;;3.65;3.10;;;20.50;46.20;;;;;;3108530;28;20046;-41
2023/12/15 03:56:27;;;;;;;3.85;3.35;;;20.40;46.40;;;;;;3109721;28;20054;-42
2023/12/15 03:57:59;;;;;;;3.58;3.20;;;20.50;46.10;;;;;;3109315;28;20041;-44
2023/12/15 03:59:31;;;;;;;4.03;3.17;;;20.60;45.80;;;;;;3107172;28;20053;-42
2023/12/15 04:01:02;;;;;;;3.42;3.13;;;20.60;45.90;;;;;;3109747;28;20053;-41
2023/12/15 04:02:33;;;;;;;3.72;3.13;;;20.40;46.20;;;;;;3109500;28;20046;-42
2023/12/15 04:04:05;;;;;;;3.55;3.22;;;20.50;46.60;;;;;;3109069;28;20046;-43
2023/12/15 04:05:36;;;;;;;3.10;2.80;;;20.70;46.50;;;;;;3109415;28;20069;-42
2023/12/15 04:07:07;;;;;;;3.55;3.22;;;20.60;46.60;;;;;;3106708;28;20058;-41
2023/12/15 04:08:41;;;;;;;3.20;2.90;;;20.70;46.80;;;;;;3111798;28;20488;-41
2023/12/15 04:10:13;;;;;;;3.47;3.00;;;20.80;46.80;;;;;;3110356;28;20115;-44
2023/12/15 04:11:46;;;;;;;3.17;2.90;;;20.80;46.70;;;;;;3110122;28;20069;-42
2023/12/15 04:13:17;;;;;;;3.33;2.92;;;20.80;46.90;;;;;;3111719;28;20054;-42
2023/12/15 04:14:48;;;;;;;3.00;2.70;;;20.90;46.70;;;;;;3111549;28;20520;-43
2023/12/15 04:16:19;;;;;;;3.08;2.78;;;21.00;46.70;;;;;;3111485;28;20065;-42
2023/12/15 04:17:50;;;;;;;2.90;2.70;;;21.00;46.80;;;;;;3111242;28;20532;-42
2023/12/15 04:19:21;;;;;;;3.13;2.83;;;21.00;46.80;;;;;;3111371;28;20041;-43
2023/12/15 04:20:53;;;;;;;3.65;2.92;;;21.10;46.80;;;;;;3111592;28;20060;-43
2023/12/15 04:22:23;;;;;;;3.40;3.10;;;21.10;46.70;;;;;;3111584;28;20050;-42
2023/12/15 04:23:55;;;;;;;3.10;2.47;;;21.20;46.60;;;;;;3111527;28;20057;-42
2023/12/15 04:25:27;;;;;;;3.17;2.83;;;21.30;46.50;;;;;;3110290;28;20054;-47
2023/12/15 04:26:59;;;;;;;3.10;2.60;;;21.30;46.50;;;;;;3110634;28;20085;-44
2023/12/15 04:28:29;;;;;;;3.03;2.72;;;21.40;46.50;;;;;;3108855;28;20049;-41
2023/12/15 04:30:01;;;;;;;2.90;2.70;;;21.30;46.50;;;;;;3111695;28;20061;-42
2023/12/15 04:31:32;;;;;;;3.10;2.80;;;21.40;46.50;;;;;;3111406;28;20057;-43
2023/12/15 04:33:03;;;;;;;2.85;2.63;;;21.40;46.50;;;;;;3111359;28;20042;-43
2023/12/15 04:34:34;;;;;;;3.20;2.90;;;21.50;46.40;;;;;;3107823;28;20149;-43
2023/12/15 04:36:08;;;;;;;3.28;2.85;;;21.50;46.40;;;;;;3111664;28;20508;-42
2023/12/15 04:37:38;;;;;;;2.50;2.20;;;21.50;46.40;;;;;;3111131;28;20054;-45
2023/12/15 04:39:10;;;;;;;3.05;2.55;;;21.50;46.30;;;;;;3111264;28;20038;-42
2023/12/15 04:40:42;;;;;;;2.83;2.63;;;21.50;46.40;;;;;;3111365;28;20045;-43
2023/12/15 04:42:13;;;;;;;3.05;2.75;;;21.50;46.50;;;;;;3110910;28;20054;-43
2023/12/15 04:43:45;;;;;;;2.33;2.13;;;21.50;46.40;;;;;;3111214;28;20536;-42
2023/12/15 04:45:17;;;;;;;2.80;2.40;;;21.60;46.40;;;;;;3111374;28;20037;-42
2023/12/15 04:46:48;;;;;;;2.78;2.42;;;21.60;46.40;;;;;;3111359;28;20220;-42
2023/12/15 04:48:20;;;;;;;2.53;2.33;;;21.70;46.50;;;;;;3111143;28;20398;-46
2023/12/15 04:49:50;;;;;;;3.28;2.70;;;21.70;46.50;;;;;;3109771;28;20046;-42
2023/12/15 04:51:22;;;;;;;3.08;2.75;;;21.80;46.40;;;;;;3110781;28;20080;-45
2023/12/15 04:52:53;;;;;;;3.28;2.40;;;21.80;46.30;;;;;;3108877;28;20053;-42
2023/12/15 04:54:24;;;;;;;2.80;2.40;;;21.90;46.30;;;;;;3111196;28;20046;-43
2023/12/15 04:55:56;;;;;;;2.58;2.38;;;21.90;46.10;;;;;;3111175;28;20057;-46
2023/12/15 04:57:28;;;;;;;2.63;2.40;;;22.00;46.20;;;;;;3111191;28;20683;-42
2023/12/15 04:58:59;;;;;;;3.05;2.58;;;22.00;46.00;;;;;;3111170;28;20042;-42
2023/12/15 05:00:30;;;;;;;2.53;2.33;;;22.00;45.90;;;;;;3110286;28;20042;-42
2023/12/15 05:02:01;;;;;;;2.58;2.38;;;22.00;46.00;;;;;;3107062;28;20547;-45
2023/12/15 05:03:33;;;;;;;2.60;2.30;;;22.10;45.90;;;;;;3111038;28;20038;-42
2023/12/15 05:05:04;;;;;;;3.13;2.83;;;22.10;45.90;;;;;;3109910;28;20045;-42
2023/12/15 05:06:36;;;;;;;2.35;2.15;;;22.00;46.00;;;;;;3110986;28;20041;-42
2023/12/15 05:08:07;;;;;;;2.40;2.20;;;22.00;46.00;;;;;;3109830;28;20054;-42
2023/12/15 05:09:38;;;;;;;2.65;2.45;;;22.00;46.10;;;;;;3110875;28;20048;-42
2023/12/15 05:11:10;;;;;;;2.25;2.13;;;22.00;46.10;;;;;;3110584;28;20046;-43
2023/12/15 05:12:42;;;;;;;2.50;2.30;;;22.00;46.00;;;;;;3110316;28;20050;-43
2023/12/15 05:14:13;;;;;;;2.75;2.47;;;22.00;46.00;;;;;;3110910;28;20073;-42
2023/12/15 05:15:44;;;;;;;2.40;2.17;;;22.00;46.00;;;;;;3111078;28;20053;-42
2023/12/15 05:17:15;;;;;;;2.53;2.33;;;22.00;46.00;;;;;;3110719;28;20054;-42
2023/12/15 05:18:46;;;;;;;2.60;2.30;;;21.90;46.00;;;;;;3110693;28;20041;-42
2023/12/15 05:20:17;;;;;;;2.40;2.20;;;21.90;46.10;;;;;;3110111;28;20081;-42
2023/12/15 05:21:49;;;;;;;2.40;2.20;;;22.00;46.00;;;;;;3111129;28;20050;-42
2023/12/15 05:23:20;;;;;;;2.58;2.25;;;22.00;46.00;;;;;;3110731;28;20053;-41
2023/12/15 05:24:52;;;;;;;2.38;2.17;;;22.00;46.00;;;;;;3110154;28;20050;-46
2023/12/15 05:26:24;;;;;;;2.40;2.20;;;22.10;46.00;;;;;;3111093;28;20088;-45
2023/12/15 05:27:55;;;;;;;2.50;2.30;;;22.10;46.00;;;;;;3110521;28;20046;-45
2023/12/15 05:29:26;;;;;;;2.50;2.25;;;22.20;46.00;;;;;;3106771;28;20049;-42
2023/12/15 05:30:58;;;;;;;2.28;1.98;;;22.20;46.00;;;;;;3108068;28;20050;-44
2023/12/15 05:32:28;;;;;;;2.55;2.10;;;22.20;46.00;;;;;;3111111;28;20050;-42
2023/12/15 05:34:00;;;;;;;2.42;2.22;;;22.30;46.30;;;;;;3110802;28;20056;-42
2023/12/15 05:35:31;;;;;;;2.45;1.95;;;22.30;46.00;;;;;;3109729;28;20049;-45
2023/12/15 05:37:02;;;;;;;2.20;2.00;;;22.30;46.00;;;;;;3110563;28;20472;-42
2023/12/15 05:38:33;;;;;;;2.20;2.00;;;22.30;46.00;;;;;;3110068;28;20049;-44
2023/12/15 05:40:05;;;;;;;2.28;2.00;;;22.40;46.00;;;;;;3110548;28;20053;-42
2023/12/15 05:41:42;;;;;;;4.07;2.20;;;22.50;45.90;;;;;;3107155;28;20049;-42
2023/12/15 05:43:13;;;;;;;5.50;2.15;;;22.50;46.10;;;;;;3107692;28;20120;-43
2023/12/15 05:44:45;;;;;;;2.45;1.85;;;22.50;46.00;;;;;;3109952;28;20059;-42
2023/12/15 05:46:17;;;;;;;8.05;2.28;;;22.50;46.10;;;;;;3108061;28;20045;-42
2023/12/15 05:47:49;;;;;;;2.05;1.90;;;22.50;46.40;;;;;;3109945;28;20177;-44
2023/12/15 05:49:20;;;;;;;2.75;1.92;;;22.50;46.40;;;;;;3106277;28;20053;-42
2023/12/15 05:50:51;;;;;;;2.20;2.00;;;22.60;46.40;;;;;;3110031;28;20491;-42
2023/12/15 05:52:22;;;;;;;3.15;1.75;;;22.60;46.40;;;;;;3109132;28;20539;-42
2023/12/15 05:53:54;;;;;;;3.97;2.10;;;22.60;46.60;;;;;;3108918;28;20046;-42
2023/12/15 05:55:24;;;;;;;4.40;1.98;;;22.50;46.70;;;;;;3110005;28;20489;-42
2023/12/15 05:56:57;;;;;;;2.20;2.00;;;22.50;46.80;;;;;;3107601;28;20045;-43
2023/12/15 05:58:29;;;;;;;2.20;1.85;;;22.50;46.80;;;;;;3107872;28;20056;-42
2023/12/15 05:59:59;;;;;;;5.75;2.17;;;22.50;46.90;;;;;;3108013;28;20046;-42
2023/12/15 06:01:31;;;;;;;2.45;1.83;;;22.60;46.90;;;;;;3107047;28;20484;-44
2023/12/15 06:03:02;;;;;;;3.72;1.80;;;22.60;46.80;;;;;;3108325;28;20052;-45
2023/12/15 06:04:34;;;;;;;2.22;1.85;;;22.50;46.90;;;;;;3109929;28;20045;-41
2023/12/15 06:06:05;;;;;;;4.15;1.83;;;22.60;47.40;;;;;;3110343;28;20056;-41
2023/12/15 06:07:37;;;;;;;3.08;1.90;;;22.50;47.80;;;;;;3108396;28;20393;-42
2023/12/15 06:09:09;;;;;;;1.98;1.77;;;22.50;47.80;;;;;;3108540;28;20093;-42
2023/12/15 06:10:41;;;;;;;5.65;2.10;;;22.50;47.80;;;;;;3109806;28;20049;-42
2023/12/15 06:12:13;;;;;;;;;;;22.50;48.00;;;;;;3108937;28;20081;-44
2023/12/15 06:13:45;;;;;;;4.35;2.65;;;22.40;48.50;;;;;;3108397;28;19928;-43
2023/12/15 06:15:16;;;;;;;6.85;3.03;;;22.30;49.10;;;;;;3110210;28;20053;-42
2023/12/15 06:16:47;;;;;;;9.18;2.95;;;22.30;49.70;;;;;;3107797;28;20053;-45
2023/12/15 06:18:18;;;;;;;9.82;2.97;;;22.30;50.10;;;;;;3110208;28;20072;-42
2023/12/15 06:19:49;;;;;;;9.55;2.65;;;22.30;50.30;;;;;;3109362;28;20050;-45
2023/12/15 06:21:21;;;;;;;7.55;3.00;;;22.30;50.60;;;;;;3109963;28;20053;-42
2023/12/15 06:22:53;;;;;;;8.07;2.92;;;22.30;50.70;;;;;;3109626;28;20224;-42
2023/12/15 06:24:24;;;;;;;13.77;2.80;;;22.40;50.80;;;;;;3109084;28;20054;-43
2023/12/15 06:25:55;;;;;;;11.60;2.88;;;22.40;51.10;;;;;;3104974;28;20053;-41
2023/12/15 06:27:28;;;;;;;12.82;2.83;;;22.30;51.30;;;;;;3108953;28;20053;-42
2023/12/15 06:29:00;;;;;;;11.27;2.83;;;22.50;51.20;;;;;;3106709;28;20057;-44
2023/12/15 06:30:32;;;;;;;7.63;2.80;;;22.70;50.80;;;;;;3108335;28;20072;-41
2023/12/15 06:32:04;;;;;;;6.65;3.15;;;22.80;50.60;;;;;;3109481;28;20623;-42
2023/12/15 06:33:35;;;;;;;15.25;3.38;;;22.80;50.70;;;;;;3109664;28;20072;-41
2023/12/15 06:35:06;;;;;;;10.40;3.20;;;22.80;50.70;;;;;;3109293;28;20045;-46
2023/12/15 06:36:38;;;;;;;7.95;3.15;;;22.80;50.20;;;;;;3110195;28;20451;-45
2023/12/15 06:38:09;;;;;;;7.55;2.83;;;22.80;50.00;;;;;;3109333;28;20041;-41
2023/12/15 06:39:43;;;;;;;8.48;2.90;;;22.90;49.70;;;;;;3108742;28;20050;-46
2023/12/15 06:41:14;;;;;;;8.10;3.85;;;22.90;49.50;;;;;;3109225;28;20050;-42
2023/12/15 06:42:47;;;;;;;7.80;3.40;;;22.90;49.50;;;;;;3108990;28;20038;-41
2023/12/15 06:44:18;;;;;;;10.38;3.83;;;22.80;49.60;;;;;;3109551;28;20053;-43
2023/12/15 06:45:49;;;;;;;9.93;4.18;;;22.90;49.50;;;;;;3109785;28;20057;-42
2023/12/15 06:47:21;;;;;;;8.93;3.85;;;22.90;49.40;;;;;;3110063;28;20041;-43
2023/12/15 06:48:53;;;;;;;10.75;3.97;;;22.80;49.60;;;;;;3107570;28;20057;-41
2023/12/15 06:50:24;;;;;;;11.48;4.40;;;22.80;49.70;;;;;;3106936;28;20261;-41
2023/12/15 06:51:55;;;;;;;7.35;4.00;;;22.80;49.70;;;;;;3106805;28;20081;-42
2023/12/15 06:53:27;;;;;;;9.63;4.03;;;22.80;49.70;;;;;;3106490;28;20053;-47
2023/12/15 06:54:59;;;;;;;5.15;4.10;;;22.80;49.70;;;;;;3109345;28;20057;-41
2023/12/15 06:56:30;;;;;;;8.25;4.80;;;22.80;49.90;;;;;;3109949;28;20077;-42
2023/12/15 06:58:03;;;;;;;9.73;4.30;;;22.70;49.90;;;;;;3109645;28;20045;-45
2023/12/15 06:59:33;;;;;;;9.50;4.32;;;22.70;49.80;;;;;;3104259;28;20042;-42
2023/12/15 07:01:05;;;;;;;6.72;4.32;;;22.60;50.10;;;;;;3109740;28;20041;-43
2023/12/15 07:02:36;;;;;;;5.53;4.05;;;22.60;50.10;;;;;;3109958;28;20064;-43
2023/12/15 07:04:08;;;;;;;9.50;4.55;;;22.70;50.00;;;;;;3109136;28;20057;-42
2023/12/15 07:05:38;;;;;;;5.85;4.35;;;22.70;50.10;;;;;;3109227;28;20701;-42
2023/12/15 07:07:10;;;;;;;8.57;4.25;;;22.50;50.20;;;;;;3109332;28;20046;-42
2023/12/15 07:08:41;;;;;;;7.13;4.63;;;22.50;50.40;;;;;;3109561;28;20057;-42
2023/12/15 07:10:12;;;;;;;8.90;4.43;;;22.50;50.60;;;;;;3106767;28;20046;-41
2023/12/15 07:11:44;;;;;;;6.47;3.83;;;22.50;50.60;;;;;;3106446;28;20051;-42
2023/12/15 07:13:17;;;;;;;9.25;4.03;;;22.40;50.60;;;;;;3107127;28;20049;-44
2023/12/15 07:14:48;;;;;;;6.55;3.67;;;22.50;50.50;;;;;;3105763;28;20303;-42
2023/12/15 07:16:19;;;;;;;6.45;3.38;;;22.50;50.50;;;;;;3106953;28;20046;-42
2023/12/15 07:17:52;;;;;;;7.00;3.45;;;22.50;50.40;;;;;;3108156;28;20050;-42
2023/12/15 07:19:23;;;;;;;7.47;3.50;;;22.60;50.40;;;;;;3108887;28;20057;-42
2023/12/15 07:20:54;;;;;;;5.90;3.35;;;22.50;50.10;;;;;;3108609;28;20412;-41
2023/12/15 07:22:25;;;;;;;8.18;3.50;;;22.50;50.10;;;;;;3108545;28;20041;-44
2023/12/15 07:23:56;;;;;;;6.40;3.40;;;22.50;49.90;;;;;;3106784;28;20052;-43
2023/12/15 07:25:28;;;;;;;5.68;3.00;;;22.60;49.80;;;;;;3107857;28;20046;-41
2023/12/15 07:26:59;;;;;;;5.87;2.93;;;22.60;49.90;;;;;;3109662;28;20053;-42
2023/12/15 07:28:32;;;;;;;5.65;3.28;;;22.50;49.80;;;;;;3108510;28;20173;-42
2023/12/15 07:30:04;;;;;;;7.47;4.03;;;22.40;50.30;;;;;;3109620;28;20492;-41
2023/12/15 07:31:36;;;;;;;8.00;3.50;;;22.40;50.30;;;;;;3107348;28;20069;-42
2023/12/15 07:33:08;;;;;;;7.90;4.10;;;22.30;50.60;;;;;;3106142;28;20042;-42
2023/12/15 07:34:39;;;;;;;8.32;4.32;;;22.20;50.80;;;;;;3107162;28;20061;-42
2023/12/15 07:36:11;;;;;;;9.23;4.68;;;22.30;50.90;;;;;;3107553;28;20854;-42
2023/12/15 07:37:42;;;;;;;11.70;4.88;;;22.40;50.80;;;;;;3105997;28;20328;-42
2023/12/15 07:39:20;;;;;;;15.90;6.10;;;22.20;50.80;;;;;;3107675;28;20144;-42
2023/12/15 07:40:54;;;;;;;10.57;5.75;;;22.20;51.00;;;;;;3109353;28;20081;-41
2023/12/15 07:42:26;;;;;;;12.43;5.95;;;22.20;51.30;;;;;;3109145;28;20053;-43
2023/12/15 07:43:58;;;;;;;11.40;5.18;;;22.10;51.10;;;;;;3109695;28;20489;-43
2023/12/15 07:45:30;;;;;;;14.95;6.22;;;22.10;51.10;;;;;;3108301;28;20061;-42
2023/12/15 07:47:00;;;;;;;10.02;5.15;;;22.10;51.30;;;;;;3108366;28;20049;-45
2023/12/15 07:48:32;;;;;;;7.45;4.97;;;22.00;51.30;;;;;;3110614;28;20053;-41
2023/12/15 07:50:03;;;;;;;13.20;5.47;;;22.00;51.30;;;;;;3110052;28;20061;-45
2023/12/15 07:51:35;;;;;;;10.52;5.43;;;22.00;51.50;;;;;;3108148;28;20053;-42
2023/12/15 07:53:06;;;;;;;14.20;6.00;;;22.00;51.40;;;;;;3107744;28;20496;-42
2023/12/15 07:54:37;;;;;;;10.27;5.65;;;22.00;51.40;;;;;;3111807;28;20048;-41